Map

Track Data

SID SEASON NUMBER BASIN SUBBASIN NAME ISO_TIME NATURE LAT LON WMO_WIND WMO_PRES WMO_AGENCY TRACK_TYPE DIST2LAND LANDFALL IFLAG USA_AGENCY USA_ATCF_ID USA_LAT USA_LON USA_RECORD USA_STATUS USA_WIND USA_PRES USA_SSHS USA_R34_NE USA_R34_SE USA_R34_SW USA_R34_NW USA_R50_NE USA_R50_SE USA_R50_SW USA_R50_NW USA_R64_NE USA_R64_SE USA_R64_SW USA_R64_NW USA_POCI USA_ROCI USA_RMW USA_EYE TOKYO_LAT TOKYO_LON TOKYO_GRADE TOKYO_WIND TOKYO_PRES TOKYO_R50_DIR TOKYO_R50_LONG TOKYO_R50_SHORT TOKYO_R30_DIR TOKYO_R30_LONG TOKYO_R30_SHORT TOKYO_LAND CMA_LAT CMA_LON CMA_CAT CMA_WIND CMA_PRES HKO_LAT HKO_LON HKO_CAT HKO_WIND HKO_PRES NEWDELHI_LAT NEWDELHI_LON NEWDELHI_GRADE NEWDELHI_WIND NEWDELHI_PRES NEWDELHI_CI NEWDELHI_DP NEWDELHI_POCI REUNION_LAT REUNION_LON REUNION_TYPE REUNION_WIND REUNION_PRES REUNION_TNUM REUNION_CI REUNION_RMW REUNION_R34_NE REUNION_R34_SE REUNION_R34_SW REUNION_R34_NW REUNION_R50_NE REUNION_R50_SE REUNION_R50_SW REUNION_R50_NW REUNION_R64_NE REUNION_R64_SE REUNION_R64_SW REUNION_R64_NW BOM_LAT BOM_LON BOM_TYPE BOM_WIND BOM_PRES BOM_TNUM BOM_CI BOM_RMW BOM_R34_NE BOM_R34_SE BOM_R34_SW BOM_R34_NW BOM_R50_NE BOM_R50_SE BOM_R50_SW BOM_R50_NW BOM_R64_NE BOM_R64_SE BOM_R64_SW BOM_R64_NW BOM_ROCI BOM_POCI BOM_EYE BOM_POS_METHOD BOM_PRES_METHOD NADI_LAT NADI_LON NADI_CAT NADI_WIND NADI_PRES WELLINGTON_LAT WELLINGTON_LON WELLINGTON_WIND WELLINGTON_PRES DS824_LAT DS824_LON DS824_STAGE DS824_WIND DS824_PRES TD9636_LAT TD9636_LON TD9636_STAGE TD9636_WIND TD9636_PRES TD9635_LAT TD9635_LON TD9635_WIND TD9635_PRES TD9635_ROCI NEUMANN_LAT NEUMANN_LON NEUMANN_CLASS NEUMANN_WIND NEUMANN_PRES MLC_LAT MLC_LON MLC_CLASS MLC_WIND MLC_PRES USA_GUST BOM_GUST BOM_GUST_PER REUNION_GUST REUNION_GUST_PER USA_SEAHGT USA_SEARAD_NE USA_SEARAD_SE USA_SEARAD_SW USA_SEARAD_NW STORM_SPEED STORM_DIR
1991290S10077 1992 81 SI MM NOT_NAMED 1991-10-16 12:00:00 TS -10.0000 76.5000 20 1005 reunion main 1838 1838 _____O________ -1 -10.0000 76.5000 2 20 1005 9.90000 1.50000 7 232
1991290S10077 1992 81 SI MM NOT_NAMED 1991-10-16 15:00:00 TS -10.2175 76.2151 main 1868 1868 _____P________ -1 -10.2175 76.2151 2 20 1005 7 236
1991290S10077 1992 81 SI MM NOT_NAMED 1991-10-16 18:00:00 TS -10.4000 75.9000 20 1005 reunion main 1899 1899 _____O________ -1 -10.4000 75.9000 2 20 1005 9.90000 1.50000 7 245
1991290S10077 1992 81 SI MM NOT_NAMED 1991-10-16 21:00:00 TS -10.5225 75.5425 main 1922 1922 _____P________ -1 -10.5225 75.5425 2 20 1005 7 254
1991290S10077 1992 81 SI MM NOT_NAMED 1991-10-17 00:00:00 TS -10.6000 75.2000 20 1005 reunion main 1943 1943 _____O________ -1 -10.6000 75.2000 2 20 1005 9.90000 1.50000 6 257
1991290S10077 1992 81 SI MM NOT_NAMED 1991-10-17 03:00:00 TS -10.6575 74.9275 main 1964 1964 _____P________ -1 -10.6575 74.9275 2 20 1005 5 258
1991290S10077 1992 81 SI MM NOT_NAMED 1991-10-17 06:00:00 TS -10.7000 74.7000 20 1005 reunion main 1971 1971 _____O________ -1 -10.7000 74.7000 2 20 1005 9.90000 1.50000 4 257
1991290S10077 1992 81 SI MM NOT_NAMED 1991-10-17 09:00:00 TS -10.7575 74.4850 main 1989 1989 _____P________ -1 -10.7575 74.4850 2 20 1005 4 256
1991290S10077 1992 81 SI MM NOT_NAMED 1991-10-17 12:00:00 TS -10.8000 74.3000 20 1005 reunion main 1996 1996 _____O________ -1 -10.8000 74.3000 2 20 1005 9.90000 1.50000 3 263
1991290S10077 1992 81 SI MM NOT_NAMED 1991-10-17 15:00:00 TS -10.8000 74.1500 main 2003 2003 _____P________ -1 -10.8000 74.1500 2 20 1005 3 270
1991290S10077 1992 81 SI MM NOT_NAMED 1991-10-17 18:00:00 TS -10.8000 74.0000 20 1005 reunion main 2007 2007 _____O________ -1 -10.8000 74.0000 2 20 1005 9.90000 1.50000 4 267
1991290S10077 1992 81 SI MM NOT_NAMED 1991-10-17 21:00:00 TS -10.8200 73.7625 main 2013 1988 _____P________ -1 -10.8200 73.7625 2 20 1005 4 256
1991290S10077 1992 81 SI MM NOT_NAMED 1991-10-18 00:00:00 TS -10.9000 73.6000 20 1005 reunion main 1988 1976 _____O________ -1 -10.9000 73.6000 2 20 1005 9.90000 1.50000 3 203
1991290S10077 1992 81 SI MM NOT_NAMED 1991-10-18 03:00:00 TS -11.0850 73.6475 main 1976 1976 _____P________ -1 -11.0850 73.6475 2 20 1005 4 154
1991290S10077 1992 81 SI MM NOT_NAMED 1991-10-18 06:00:00 TS -11.3000 73.8000 20 1005 reunion main 1983 1977 _____O________ -1 -11.3000 73.8000 2 20 1005 9.90000 1.50000 5 142
1991290S10077 1992 81 SI MM NOT_NAMED 1991-10-18 09:00:00 TS -11.4650 73.9500 main 1981 1981 _____P________ -1 -11.4650 73.9500 2 20 1003 4 136
1991290S10077 1992 81 SI MM NOT_NAMED 1991-10-18 12:00:00 TS -11.6000 74.1000 20 1002 reunion main 1993 1993 _____O________ -1 -11.6000 74.1000 2 20 1002 9.90000 2.00000 4 134
1991290S10077 1992 81 SI MM NOT_NAMED 1991-10-18 15:00:00 TS -11.7075 74.2075 main 1997 1997 _____P________ -1 -11.7075 74.2075 2 20 1002 3 135
1991290S10077 1992 81 SI MM NOT_NAMED 1991-10-18 18:00:00 TS -11.8000 74.3000 20 1002 reunion main 2001 2001 _____O________ -1 -11.8000 74.3000 2 20 1002 9.90000 2.00000 3 135
1991290S10077 1992 81 SI MM NOT_NAMED 1991-10-18 21:00:00 TS -11.9000 74.4000 main 2005 1999 _____P________ -1 -11.9000 74.4000 2 20 1002 3 136
1991290S10077 1992 81 SI MM NOT_NAMED 1991-10-19 00:00:00 TS -12.0000 74.5000 20 1002 reunion main 2009 2009 _____O________ -1 -12.0000 74.5000 2 20 1002 9.90000 2.00000 3 132
1991290S10077 1992 81 SI MM NOT_NAMED 1991-10-19 03:00:00 TS -12.0925 74.6150 main 2013 2013 _____P________ -1 -12.0925 74.6150 2 22 1001 3 136
1991290S10077 1992 81 SI MM NOT_NAMED 1991-10-19 06:00:00 TS -12.2000 74.7000 24 1000 reunion main 2017 2012 _____O________ -1 -12.2000 74.7000 2 24 1000 9.90000 2.00000 3 157
1991290S10077 1992 81 SI MM NOT_NAMED 1991-10-19 09:00:00 TS -12.3500 74.7300 main 2012 2001 _____P________ -1 -12.3500 74.7300 2 24 1000 3 0
1991290S10077 1992 81 SI MM NOT_NAMED 1991-10-19 12:00:00 TS -12.5000 74.7000 24 1000 reunion main 2001 1986 _____O________ -1 -12.5000 74.7000 2 24 1000 9.90000 2.00000 3 203
1991290S10077 1992 81 SI MM NOT_NAMED 1991-10-19 15:00:00 TS -12.6000 74.6225 main 1986 1971 _____P________ -1 -12.6000 74.6225 2 26 998 3 224
1991290S10077 1992 81 SI MM NOT_NAMED 1991-10-19 18:00:00 TS -12.7000 74.5000 28 997 reunion main 1971 1956 _____O________ -1 -12.7000 74.5000 2 28 997 9.90000 2.50000 4 226
1991290S10077 1992 81 SI MM NOT_NAMED 1991-10-19 21:00:00 TS -12.8500 74.3575 main 1951 1927 _____P________ -1 -12.8500 74.3575 2 28 997 4 224
1991290S10077 1992 81 SI MM NOT_NAMED 1991-10-20 00:00:00 TS -13.0000 74.2000 28 997 reunion main 1927 1912 _____O________ -1 -13.0000 74.2000 2 28 997 9.90000 2.50000 4 229
1991290S10077 1992 81 SI MM NOT_NAMED 1991-10-20 03:00:00 TS -13.1075 74.0575 main 1912 1888 _____P________ -1 -13.1075 74.0575 2 28 997 4 236
1991290S10077 1992 81 SI MM NOT_NAMED 1991-10-20 06:00:00 TS -13.2000 73.9000 28 997 reunion main 1888 1873 _____O________ -1 -13.2000 73.9000 2 28 997 9.90000 2.50000 3 239
1991290S10077 1992 81 SI MM NOT_NAMED 1991-10-20 09:00:00 TS -13.2773 73.7673 main 1873 1839 _____P________ -1 -13.2773 73.7673 2 28 997 4 243
1991290S10077 1992 81 SI MM NOT_NAMED 1991-10-20 12:00:00 TS -13.4000 73.5000 28 997 reunion main 1839 1790 _____O________ -1 -13.4000 73.5000 2 28 997 9.90000 2.50000 7 240
1991290S10077 1992 81 SI MM NOT_NAMED 1991-10-20 15:00:00 TS -13.6485 73.1023 main 1790 1708 _____P________ -1 -13.6485 73.1023 2 28 997 13 247
1991290S10077 1992 81 SI MM NOT_NAMED 1991-10-20 18:00:00 TS -13.9000 72.3000 28 997 reunion main 1698 1559 _____O________ -1 -13.9000 72.3000 2 28 997 9.90000 2.50000 23 260
1991290S10077 1992 81 SI MM NOT_NAMED 1991-10-20 21:00:00 TS -14.0328 70.7950 main 1550 1403 _____P________ -1 -14.0328 70.7950 2 26 998 30 266
1991290S10077 1992 81 SI MM NOT_NAMED 1991-10-21 00:00:00 TS -14.1000 69.2000 24 1000 reunion main 1393 1295 _____O________ -1 -14.1000 69.2000 2 24 1000 9.90000 2.00000 26 267
1991290S10077 1992 81 SI MM NOT_NAMED 1991-10-21 03:00:00 TS -14.1638 68.1501 main 1295 1223 _____P________ -1 -14.1638 68.1501 2 24 1000 18 267
1991290S10077 1992 81 SI MM NOT_NAMED 1991-10-21 06:00:00 TS -14.2000 67.4000 24 1000 reunion main 1223 1170 _____O________ -1 -14.2000 67.4000 2 24 1000 9.90000 2.00000 13 268
1991290S10077 1992 81 SI MM NOT_NAMED 1991-10-21 09:00:00 TS -14.2069 66.7975 main 1170 1127 _____P________ -1 -14.2069 66.7975 2 22 1001 11 270
1991290S10077 1992 81 SI MM NOT_NAMED 1991-10-21 12:00:00 TS -14.2000 66.3000 20 1002 reunion main 1127 1084 _____O________ -1 -14.2000 66.3000 2 20 1002 9.90000 2.00000 10 270
1991290S10077 1992 81 SI MM NOT_NAMED 1991-10-21 15:00:00 TS -14.2074 65.7426 main 1076 1034 _____P________ -1 -14.2074 65.7426 2 20 1003 11 270
1991290S10077 1992 81 SI MM NOT_NAMED 1991-10-21 18:00:00 TS -14.2000 65.2000 20 1005 reunion main 1034 994 _____O________ -1 -14.2000 65.2000 2 20 1005 9.90000 1.50000 10 273
1991290S10077 1992 81 SI MM NOT_NAMED 1991-10-21 21:00:00 TS -14.1573 64.6925 main 994 963 _____P________ -1 -14.1573 64.6925 2 20 1005 10 276
1991290S10077 1992 81 SI MM NOT_NAMED 1991-10-22 00:00:00 TS -14.1000 64.2000 20 1005 reunion main 963 925 _____O________ -1 -14.1000 64.2000 6 20 1005 9.90000 1.50000 10 276
1991290S10077 1992 81 SI MM NOT_NAMED 1991-10-22 03:00:00 TS -14.0499 63.6925 main 934 898 _____P________ -1 -14.0499 63.6925 6 10 276
1991290S10077 1992 81 SI MM NOT_NAMED 1991-10-22 06:00:00 TS -14.0000 63.2000 reunion main 898 871 _____O________ -1 -14.0000 63.2000 6 9.90000 9 276
1991290S10077 1992 81 SI MM NOT_NAMED 1991-10-22 09:00:00 TS -13.9501 62.7400 main 865 848 _____P________ -1 -13.9501 62.7400 6 9 277
1991290S10077 1992 81 SI MM NOT_NAMED 1991-10-22 12:00:00 TS -13.9000 62.3000 reunion main 848 _____O________ -1 -13.9000 62.3000 6 9.90000 9 277

About IBTrACS Database

This database is a web-friendly format of International Best Track Archive for Climate Stewardship (IBTrACS), a global best track data archive curated by NOAA dating back to 1842.

Updated: 2021-10-19